Portada
METAR-TAF:

METAR-TAF

Aeropuertos :

Albacete, España

Aeropuerto de Albacete

latitud: 38-57N, longitud: 001-51W, altitud: 702 m

Observación

El informe se hizo hace 35 minutos, a las 04:00 UTC
Viento 4 kt del sur
Temperatura 21°C
Humedad 83%
Presión 1013 hPa
Visibilidad 10 km o más
sin nubes por debajo de 1500 m y sin presencia de cumulonimbus.

METAR: LEAB 210400Z 18004KT CAVOK 21/18 Q1013 NOSIG

Hora: 06:35 (04:35 UTC)

Pronóstico

El informe se hizo hace 2 horas y 35 minutos, a las 02:00 UTC
Pronóstico válido del 21 a las 03 UTC al 21 a las 12 UTC
Viento 10 kt del sur-sureste
Visibilidad 10 km o más
sin nubes por debajo de 1500 m y sin presencia de cumulonimbus.
Probabilidad 30% :
Temporalmente
del 21 a las 03 UTC al 21 a las 07 UTC
Cielo nuboso a una altura de 500 ft
Temporalmente
del 21 a las 10 UTC al 21 a las 12 UTC
Viento 5 kt con dirección variable

TAF: LEAB 210200Z 2103/2112 16010KT CAVOK PROB30 TEMPO 2103/2107 BKN005 TEMPO 2110/2112 VRB05KT

Observaciones y pronósticos meteorológicos de más de 4000 aeropuertos (mensajes METAR y TAF).

Los puntos amarillos y rojos representan las estaciones disponibles.

Ponga el ratón en el punto deseado para ver el nombre de la estación.

Haga clic para ver las observaciones y los pronósticos meteorológicos.

Para cambiar el mapa : haga clic en los botones verdes con una cruz de color negro para hacer un zoom, en el botón verde con un guión para alejar o en las flechas verdes para mapas adyacentes.


METAR-TAF: